This is the latest recevied weather packets stored in our database for station/object LX2ZZ-13. If no packets are shown the sender has not sent any weather packets the latest 10 day(s).
| Time | Temp. | Humidity | Pressure | Rain* | Wind** | Luminosity | Snow |
|---|---|---|---|---|---|---|---|
| 1777829788 | 15° C | 73% | 1012.6 hPa | 0 mm | - | - | - |
| 1777827939 | 15° C | 70% | 1012.7 hPa | 0 mm | - | - | - |
| 1777826733 | 15.56° C | 69% | 1012.7 hPa | 0 mm | - | - | - |
| 1777826130 | 15.56° C | 69% | 1012.9 hPa | 0 mm | - | - | - |
| 1777823194 | 16.11° C | 71% | 1013 hPa | 0 mm | - | - | - |
| 1777822571 | 15° C | 77% | 1013.1 hPa | 0 mm | - | - | - |
| 1777821365 | 15° C | 82% | 1013.2 hPa | 0 mm | - | - | - |
| 1777820159 | 14.44° C | 83% | 1013.5 hPa | 0 mm | - | - | - |
| 1777817143 | 14.44° C | 83% | 1013.6 hPa | 0.51 mm | - | - | - |
| 1777813544 | 15.56° C | 75% | 1013.9 hPa | 0 mm | - | - | - |
| 1777808759 | 18.33° C | 58% | 1013.4 hPa | 0 mm | - | - | - |
| 1777803933 | 16.11° C | 64% | 1013.7 hPa | 0 mm | - | - | - |
| 1777801521 | 17.78° C | 51% | 1013.6 hPa | 0 mm | - | - | - |
| 1777800315 | 17.78° C | 49% | 1013.5 hPa | 0 mm | - | - | - |
| 1777799169 | 17.78° C | 50% | 1013.4 hPa | 0 mm | - | - | - |
| 1777798566 | 17.78° C | 48% | 1013.5 hPa | 0 mm | - | - | - |
| 1777797360 | 18.33° C | 46% | 1013.3 hPa | 0 mm | - | - | - |
| 1777796757 | 17.78° C | 46% | 1013.4 hPa | 0 mm | - | - | - |
| 1777793136 | 15.56° C | 50% | 1013.2 hPa | 0 mm | - | - | - |
| 1777790744 | 15.56° C | 56% | 1013.1 hPa | 0 mm | - | - | - |
| 1777788371 | 14.44° C | 59% | 1013 hPa | 0 mm | - | - | - |
| 1777787768 | 14.44° C | 60% | 1013 hPa | 0 mm | - | - | - |
| 1777787185 | 13.89° C | 60% | 1013.1 hPa | 0 mm | - | - | - |
| 1777785356 | 12.78° C | 62% | 1013 hPa | 0 mm | - | - | - |
| 1777772751 | 11.67° C | 66% | 1013.7 hPa | 0 mm | - | - | - |
* Rain latest hour (hover to see other rain measurements)
** Current wind speed in m/s (hover to see current wind gust speed)